createdAt,value
2019-05-16T00:01:45.278Z,9.80
2019-05-16T00:04:14.998Z,9.73
2019-05-16T00:06:44.576Z,9.84
2019-05-16T00:09:18.341Z,9.74
2019-05-16T00:11:48.877Z,9.71
2019-05-16T00:14:18.875Z,9.63
2019-05-16T00:16:48.568Z,9.59
2019-05-16T00:19:18.967Z,9.53
2019-05-16T00:21:48.874Z,9.55
2019-05-16T00:24:18.874Z,9.66
2019-05-16T00:26:48.898Z,9.61
2019-05-16T00:29:18.541Z,9.63
2019-05-16T00:31:48.757Z,9.62
2019-05-16T00:34:20.264Z,9.63
2019-05-16T00:36:49.727Z,9.61
2019-05-16T00:39:19.456Z,9.52
2019-05-16T00:41:50.340Z,9.47
2019-05-16T00:44:20.022Z,9.44
2019-05-16T00:46:50.548Z,9.63
2019-05-16T00:49:20.744Z,9.42
2019-05-16T00:51:50.341Z,9.59
2019-05-16T00:54:27.862Z,9.49
2019-05-16T00:56:57.851Z,9.34
2019-05-16T00:59:28.859Z,9.29
2019-05-16T01:01:58.857Z,9.28
2019-05-16T01:04:28.865Z,9.34
2019-05-16T01:07:01.727Z,9.36
2019-05-16T01:09:33.641Z,9.37
2019-05-16T01:12:03.567Z,9.35
2019-05-16T01:14:33.695Z,9.35
2019-05-16T01:17:08.737Z,9.40
2019-05-16T01:19:49.571Z,9.34
2019-05-16T01:22:20.607Z,9.15
2019-05-16T01:24:59.554Z,9.09
2019-05-16T01:27:40.735Z,9.01
2019-05-16T01:30:14.449Z,8.98
2019-05-16T01:32:44.359Z,9.04
2019-05-16T01:35:14.092Z,9.03
2019-05-16T01:37:43.819Z,9.08
2019-05-16T01:40:14.371Z,9.00
2019-05-16T01:42:44.010Z,8.97
2019-05-16T01:45:14.529Z,8.94
2019-05-16T01:47:43.978Z,8.92
2019-05-16T01:50:13.769Z,8.87
2019-05-16T01:52:43.334Z,8.93
2019-05-16T01:55:12.899Z,8.87
2019-05-16T01:57:42.529Z,8.82
2019-05-16T02:00:14.868Z,8.73
2019-05-16T02:02:45.388Z,8.80
2019-05-16T02:05:15.386Z,8.83
2019-05-16T02:07:47.854Z,8.84
2019-05-16T02:10:18.255Z,8.75
2019-05-16T02:12:49.053Z,8.79
2019-05-16T02:15:18.773Z,8.68
2019-05-16T02:17:48.917Z,8.80
2019-05-16T02:20:19.095Z,8.71
2019-05-16T02:22:49.188Z,8.75
2019-05-16T02:25:21.088Z,8.73
2019-05-16T02:27:53.107Z,8.80
2019-05-16T02:30:22.960Z,8.79
2019-05-16T02:32:52.717Z,8.68
2019-05-16T02:35:22.294Z,8.73
2019-05-16T02:37:55.244Z,8.59
2019-05-16T02:40:24.636Z,8.59
2019-05-16T02:42:56.120Z,8.62
2019-05-16T02:45:25.604Z,8.53
2019-05-16T02:47:55.177Z,8.24
2019-05-16T02:50:26.055Z,8.08
2019-05-16T02:52:56.920Z,8.06
2019-05-16T02:55:26.589Z,8.04
2019-05-16T02:57:56.281Z,8.02
2019-05-16T03:00:42.589Z,7.96
2019-05-16T03:03:11.916Z,7.76
2019-05-16T03:05:44.020Z,7.76
2019-05-16T03:08:14.834Z,7.70
2019-05-16T03:10:45.635Z,7.50
2019-05-16T03:13:15.830Z,7.41
2019-05-16T03:15:50.828Z,7.39
2019-05-16T03:18:23.572Z,7.28
2019-05-16T03:20:55.437Z,7.20
2019-05-16T03:23:25.067Z,7.10
2019-05-16T03:25:55.118Z,7.06
2019-05-16T03:28:24.801Z,6.96
2019-05-16T03:30:55.195Z,6.97
2019-05-16T03:33:38.956Z,6.88
2019-05-16T03:36:04.079Z,6.90
2019-05-16T03:38:30.942Z,6.89
2019-05-16T03:41:01.106Z,6.92
2019-05-16T03:43:31.111Z,6.89
2019-05-16T03:46:02.722Z,6.91
2019-05-16T03:48:33.165Z,6.94
2019-05-16T03:51:02.735Z,7.01
2019-05-16T03:53:32.232Z,6.98
2019-05-16T03:56:02.115Z,6.87
2019-05-16T03:58:32.029Z,6.78
2019-05-16T04:01:02.536Z,6.75
2019-05-16T04:03:33.393Z,6.68
2019-05-16T04:06:03.298Z,6.71
2019-05-16T04:08:34.115Z,6.66
2019-05-16T04:11:03.624Z,6.64
2019-05-16T04:13:33.335Z,6.60
2019-05-16T04:16:03.071Z,6.54
2019-05-16T04:18:33.020Z,6.65
2019-05-16T04:21:02.687Z,6.66
2019-05-16T04:23:32.207Z,6.56
2019-05-16T04:26:02.280Z,6.55
2019-05-16T04:28:32.201Z,6.54
2019-05-16T04:31:02.427Z,6.56
2019-05-16T04:33:32.256Z,6.45
2019-05-16T04:36:02.278Z,6.44
2019-05-16T04:38:40.861Z,6.42
2019-05-16T04:41:03.429Z,6.44
2019-05-16T04:43:33.340Z,6.32
2019-05-16T04:46:03.108Z,6.33
2019-05-16T04:48:33.391Z,6.35
2019-05-16T04:51:02.964Z,6.31
2019-05-16T04:53:32.731Z,6.40
2019-05-16T04:56:02.391Z,6.38
2019-05-16T04:58:32.022Z,6.47
2019-05-16T05:01:02.092Z,6.43
2019-05-16T05:03:32.007Z,6.46
2019-05-16T05:06:02.119Z,6.51
2019-05-16T05:08:48.558Z,6.49
2019-05-16T05:11:02.982Z,6.31
2019-05-16T05:13:41.090Z,6.31
2019-05-16T05:16:10.644Z,6.42
2019-05-16T05:18:41.046Z,6.28
2019-05-16T05:21:11.699Z,6.37
2019-05-16T05:23:41.284Z,6.36
2019-05-16T05:26:11.289Z,6.40
2019-05-16T05:28:40.753Z,6.41
2019-05-16T05:31:11.678Z,6.40
2019-05-16T05:33:42.696Z,6.31
2019-05-16T05:36:12.724Z,6.32
2019-05-16T05:38:42.241Z,6.35
2019-05-16T05:41:11.980Z,6.46
2019-05-16T05:43:41.634Z,6.49
2019-05-16T05:46:11.360Z,6.40
2019-05-16T05:48:41.410Z,6.40
2019-05-16T05:51:11.461Z,6.33
2019-05-16T05:53:41.853Z,6.41
2019-05-16T05:56:11.661Z,6.49
2019-05-16T05:58:42.889Z,6.44
2019-05-16T06:01:12.410Z,6.48
2019-05-16T06:03:42.107Z,6.52
2019-05-16T06:06:11.794Z,6.57
2019-05-16T06:08:41.269Z,6.53
2019-05-16T06:11:10.986Z,6.55
2019-05-16T06:13:41.833Z,6.54
2019-05-16T06:16:11.987Z,6.66
2019-05-16T06:18:41.538Z,6.68
2019-05-16T06:21:11.886Z,6.68
2019-05-16T06:23:41.600Z,6.62
2019-05-16T06:26:12.386Z,6.64
2019-05-16T06:28:42.996Z,6.81
2019-05-16T06:31:14.285Z,6.81
2019-05-16T06:33:44.053Z,6.74
2019-05-16T06:36:14.961Z,6.68
2019-05-16T06:38:45.131Z,6.80
2019-05-16T06:41:15.616Z,6.85
2019-05-16T06:43:45.225Z,6.92
2019-05-16T06:46:14.711Z,6.91
2019-05-16T06:48:45.700Z,6.91
2019-05-16T06:51:16.601Z,6.95
2019-05-16T06:53:46.554Z,7.15
2019-05-16T06:56:19.998Z,7.09
2019-05-16T06:58:51.883Z,7.05
2019-05-16T07:01:21.700Z,7.12
2019-05-16T07:03:54.989Z,7.28
2019-05-16T07:06:47.633Z,7.31
2019-05-16T07:08:56.735Z,7.37
2019-05-16T07:11:30.494Z,7.27
2019-05-16T07:14:01.239Z,7.46
2019-05-16T07:16:31.994Z,7.38
2019-05-16T07:19:01.754Z,7.36
2019-05-16T07:21:34.294Z,7.38
2019-05-16T07:24:30.569Z,7.32
2019-05-16T07:27:01.947Z,7.49
2019-05-16T07:29:31.974Z,7.52
2019-05-16T07:32:01.944Z,7.49
2019-05-16T07:34:32.553Z,7.45
2019-05-16T07:37:02.785Z,7.44
2019-05-16T07:39:34.483Z,7.64
2019-05-16T07:42:04.270Z,7.66
2019-05-16T07:44:35.954Z,7.59
2019-05-16T07:47:05.896Z,7.69
2019-05-16T07:49:40.698Z,7.59
2019-05-16T07:52:11.165Z,7.70
2019-05-16T07:54:41.837Z,7.78
2019-05-16T07:57:19.526Z,7.73
2019-05-16T07:59:45.582Z,7.86
2019-05-16T08:02:16.108Z,7.77
2019-05-16T08:04:46.720Z,7.73
2019-05-16T08:07:16.722Z,7.76
2019-05-16T08:09:47.443Z,7.70
2019-05-16T08:12:23.490Z,7.82
2019-05-16T08:14:52.960Z,7.80
2019-05-16T08:17:31.601Z,7.81
2019-05-16T08:20:10.961Z,7.88
2019-05-16T08:22:41.902Z,8.01
2019-05-16T08:25:14.563Z,8.01
2019-05-16T08:27:45.092Z,8.02
2019-05-16T08:30:15.972Z,7.82
2019-05-16T08:32:46.612Z,7.82
2019-05-16T08:35:17.219Z,7.80
2019-05-16T08:37:51.065Z,7.91
2019-05-16T08:40:21.267Z,8.13
2019-05-16T08:42:51.878Z,8.09
2019-05-16T08:45:23.483Z,8.00
2019-05-16T08:47:53.177Z,8.11
2019-05-16T08:50:23.458Z,8.08
2019-05-16T08:52:53.428Z,8.06
2019-05-16T08:55:23.116Z,8.01
2019-05-16T09:00:25.775Z,8.15
2019-05-16T09:02:56.397Z,8.51
2019-05-16T09:05:26.307Z,8.46
2019-05-16T09:10:26.157Z,8.31
2019-05-16T09:10:50.326Z,8.37
2019-05-16T09:12:59.580Z,8.33
2019-05-16T09:15:29.364Z,8.20
2019-05-16T09:17:59.170Z,8.42
2019-05-16T09:18:30.894Z,8.23
2019-05-16T09:20:31.161Z,8.58
2019-05-16T09:23:01.682Z,8.56
2019-05-16T09:25:32.191Z,8.41
2019-05-16T09:28:01.988Z,8.52
2019-05-16T09:30:32.439Z,8.42
2019-05-16T09:33:02.883Z,8.45
2019-05-16T09:35:32.785Z,8.71
2019-05-16T09:38:03.413Z,8.78
2019-05-16T09:40:33.754Z,8.94
2019-05-16T09:43:03.634Z,9.18
2019-05-16T09:45:33.366Z,9.07
2019-05-16T09:48:08.105Z,9.06
2019-05-16T09:50:38.315Z,8.84
2019-05-16T09:53:07.874Z,9.08
2019-05-16T09:55:37.888Z,9.03
2019-05-16T09:58:08.228Z,9.16
2019-05-16T10:00:38.650Z,9.53
2019-05-16T10:03:08.243Z,9.71
2019-05-16T10:05:38.780Z,9.39
2019-05-16T10:08:09.349Z,9.26
2019-05-16T10:10:39.400Z,9.27
2019-05-16T10:13:10.745Z,9.59
2019-05-16T10:15:40.546Z,9.52
2019-05-16T10:18:10.807Z,9.25
2019-05-16T10:20:41.034Z,9.28
2019-05-16T10:23:14.602Z,9.37
2019-05-16T10:25:44.253Z,9.35
2019-05-16T10:28:17.388Z,9.32
2019-05-16T10:30:50.171Z,9.40
2019-05-16T10:33:19.192Z,9.43
2019-05-16T10:35:49.343Z,9.28
2019-05-16T10:38:20.005Z,9.24
2019-05-16T10:40:51.694Z,9.35
2019-05-16T10:43:21.130Z,9.35
2019-05-16T10:45:54.111Z,9.44
2019-05-16T10:48:23.559Z,9.39
2019-05-16T10:50:53.970Z,9.29
2019-05-16T10:53:55.680Z,9.46
2019-05-16T10:55:57.983Z,9.25
2019-05-16T10:58:36.405Z,9.37
2019-05-16T11:01:22.381Z,9.34
2019-05-16T11:03:32.925Z,9.25
2019-05-16T11:06:06.055Z,9.21
2019-05-16T11:08:37.172Z,9.24
2019-05-16T11:11:06.695Z,9.10
2019-05-16T11:13:37.123Z,9.13
2019-05-16T11:16:10.451Z,9.18
2019-05-16T11:18:42.084Z,9.33
2019-05-16T11:21:12.003Z,9.31
2019-05-16T11:23:44.234Z,9.32
2019-05-16T11:26:14.938Z,9.25
2019-05-16T11:28:47.957Z,9.24
2019-05-16T11:31:17.656Z,9.20
2019-05-16T11:33:47.874Z,9.13
2019-05-16T11:36:17.607Z,9.17
2019-05-16T11:38:49.655Z,9.21
2019-05-16T11:41:20.999Z,9.48
2019-05-16T11:43:51.821Z,9.27
2019-05-16T11:46:21.469Z,9.53
2019-05-16T11:48:52.244Z,9.78
2019-05-16T11:51:21.749Z,9.84
2019-05-16T11:53:51.886Z,9.78
2019-05-16T11:56:22.292Z,9.84
2019-05-16T11:58:51.939Z,9.93
2019-05-16T12:01:21.907Z,9.77
2019-05-16T12:03:51.985Z,9.71
2019-05-16T12:06:22.276Z,9.74
2019-05-16T12:08:52.701Z,9.90
2019-05-16T12:11:22.514Z,9.80
2019-05-16T12:13:53.184Z,9.82
2019-05-16T12:16:23.204Z,9.69
2019-05-16T12:18:52.821Z,9.84
2019-05-16T12:21:23.103Z,9.85
2019-05-16T12:23:53.131Z,9.89
2019-05-16T12:26:23.980Z,10.14
2019-05-16T12:28:53.548Z,10.24
2019-05-16T12:31:23.905Z,10.09
2019-05-16T12:33:53.507Z,9.90
2019-05-16T12:36:26.619Z,9.80
2019-05-16T12:38:57.495Z,9.97
2019-05-16T12:41:28.681Z,10.18
2019-05-16T12:44:00.390Z,10.11
2019-05-16T12:46:30.146Z,9.91
2019-05-16T12:49:00.808Z,9.81
2019-05-16T12:51:30.749Z,10.01
2019-05-16T12:54:00.750Z,10.00
2019-05-16T12:56:30.645Z,9.89
2019-05-16T12:59:01.184Z,9.89
2019-05-16T13:01:34.195Z,9.74
2019-05-16T13:04:02.576Z,9.70
2019-05-16T13:06:33.299Z,9.89
2019-05-16T13:09:06.961Z,9.83
2019-05-16T13:11:37.781Z,9.87
2019-05-16T13:14:11.041Z,9.80
2019-05-16T13:16:39.316Z,9.74
2019-05-16T13:19:08.943Z,9.76
2019-05-16T13:21:39.363Z,9.66
2019-05-16T13:24:09.564Z,9.70
2019-05-16T13:26:39.641Z,9.86
2019-05-16T13:29:09.367Z,10.06
2019-05-16T13:31:39.138Z,10.37
2019-05-16T13:34:09.345Z,10.47
2019-05-16T13:36:39.270Z,10.46
2019-05-16T13:39:09.781Z,10.49
2019-05-16T13:41:39.418Z,10.49
2019-05-16T13:44:18.412Z,10.55
2019-05-16T13:46:40.228Z,10.49
2019-05-16T13:49:10.414Z,10.57
2019-05-16T13:51:40.089Z,10.84
2019-05-16T13:54:10.509Z,11.09
2019-05-16T13:56:40.109Z,11.05
2019-05-16T13:59:10.349Z,11.15
2019-05-16T14:01:41.224Z,11.40
2019-05-16T14:04:10.977Z,11.30
2019-05-16T14:06:41.853Z,11.48
2019-05-16T14:09:11.921Z,11.23
2019-05-16T14:11:41.475Z,11.34
2019-05-16T14:14:11.833Z,11.46
2019-05-16T14:16:41.601Z,11.10
2019-05-16T14:19:12.099Z,11.17
2019-05-16T14:21:41.530Z,11.35
2019-05-16T14:24:11.316Z,11.38
2019-05-16T14:26:42.059Z,11.61
2019-05-16T14:29:11.569Z,11.82
2019-05-16T14:31:42.367Z,11.69
2019-05-16T14:34:17.746Z,11.76
2019-05-16T14:36:47.398Z,11.99
2019-05-16T14:39:20.832Z,12.11
2019-05-16T14:41:50.252Z,12.11
2019-05-16T14:44:20.483Z,12.14
2019-05-16T14:46:51.043Z,12.19
2019-05-16T14:49:21.157Z,12.05
2019-05-16T14:51:50.764Z,12.08
2019-05-16T14:54:20.257Z,12.04
2019-05-16T14:56:50.061Z,11.97
2019-05-16T14:59:19.761Z,11.72
2019-05-16T15:01:50.030Z,11.70
2019-05-16T15:04:20.009Z,11.90
2019-05-16T15:06:49.656Z,11.87
2019-05-16T15:09:19.208Z,11.87
2019-05-16T15:11:48.880Z,12.00
2019-05-16T15:14:18.916Z,12.07
2019-05-16T15:16:52.200Z,12.06
2019-05-16T15:19:22.135Z,12.19
2019-05-16T15:21:52.119Z,12.07
2019-05-16T15:24:23.088Z,12.19
2019-05-16T15:26:53.329Z,12.20
2019-05-16T15:29:22.864Z,12.21
2019-05-16T15:31:52.983Z,12.19
2019-05-16T15:34:22.421Z,11.96
2019-05-16T15:36:53.068Z,11.96
2019-05-16T15:39:22.836Z,12.00
2019-05-16T15:41:53.164Z,12.01
2019-05-16T15:44:22.892Z,12.04
2019-05-16T15:46:52.461Z,11.95
2019-05-16T15:49:22.215Z,11.84
2019-05-16T15:51:52.137Z,11.78
2019-05-16T15:54:28.273Z,11.75
2019-05-16T15:56:55.983Z,11.70
2019-05-16T15:59:27.356Z,11.74
2019-05-16T16:01:57.267Z,11.81
2019-05-16T16:04:27.135Z,11.87
2019-05-16T16:06:56.901Z,11.84
2019-05-16T16:09:27.069Z,11.81
2019-05-16T16:11:56.817Z,11.81
2019-05-16T16:14:27.486Z,11.81
2019-05-16T16:16:59.715Z,11.77
2019-05-16T16:19:30.153Z,11.71
2019-05-16T16:22:00.217Z,11.65
2019-05-16T16:24:29.937Z,11.57
2019-05-16T16:27:01.595Z,11.55
2019-05-16T16:29:33.164Z,11.51
2019-05-16T16:32:03.102Z,11.52
2019-05-16T16:34:36.574Z,11.56
2019-05-16T16:37:07.559Z,11.41
2019-05-16T16:39:37.917Z,11.43
2019-05-16T16:42:08.550Z,11.44
2019-05-16T16:44:38.161Z,11.37
2019-05-16T16:47:07.796Z,11.30
2019-05-16T16:49:40.099Z,11.29
2019-05-16T16:52:11.044Z,11.35
2019-05-16T16:54:40.711Z,11.34
2019-05-16T16:57:11.376Z,11.32
2019-05-16T16:59:41.424Z,11.23
2019-05-16T17:02:11.677Z,11.22
2019-05-16T17:04:41.899Z,11.19
2019-05-16T17:07:11.760Z,11.29
2019-05-16T17:09:41.829Z,11.11
2019-05-16T17:12:11.610Z,11.05
2019-05-16T17:14:41.510Z,11.11
2019-05-16T17:17:12.232Z,11.04
2019-05-16T17:19:43.505Z,10.93
2019-05-16T17:22:19.927Z,10.89
2019-05-16T17:24:47.299Z,10.87
2019-05-16T17:27:18.253Z,10.74
2019-05-16T17:29:48.172Z,10.68
2019-05-16T17:32:18.713Z,10.60
2019-05-16T17:34:48.415Z,10.52
2019-05-16T17:37:17.857Z,10.38
2019-05-16T17:39:50.276Z,10.34
2019-05-16T17:42:19.690Z,10.34
2019-05-16T17:44:49.117Z,10.33
2019-05-16T17:47:18.940Z,10.43
2019-05-16T17:49:48.508Z,10.34
2019-05-16T17:52:18.169Z,10.31
2019-05-16T17:54:48.106Z,10.33
2019-05-16T17:57:18.052Z,10.33
2019-05-16T17:59:48.162Z,10.29
2019-05-16T18:02:17.830Z,10.31
2019-05-16T18:04:47.818Z,10.42
2019-05-16T18:07:18.322Z,10.37
2019-05-16T18:09:48.465Z,10.37
2019-05-16T18:12:18.993Z,10.35
2019-05-16T18:14:50.471Z,10.27
2019-05-16T18:17:21.334Z,10.33
2019-05-16T18:19:50.844Z,10.22
2019-05-16T18:22:20.656Z,10.15
2019-05-16T18:24:51.017Z,10.04
2019-05-16T18:27:22.727Z,10.05
2019-05-16T18:29:52.803Z,10.11
2019-05-16T18:32:22.922Z,10.02
2019-05-16T18:34:56.434Z,10.02
2019-05-16T18:37:26.611Z,9.92
2019-05-16T18:39:56.555Z,9.95
2019-05-16T18:42:27.584Z,9.94
2019-05-16T18:44:57.655Z,9.99
2019-05-16T18:47:28.335Z,9.98
2019-05-16T18:49:58.191Z,10.00
2019-05-16T18:52:27.645Z,10.04
2019-05-16T18:54:57.611Z,10.01
2019-05-16T18:57:27.885Z,10.02
2019-05-16T18:59:58.957Z,10.07
2019-05-16T19:02:32.585Z,10.07
2019-05-16T19:05:06.760Z,10.12
2019-05-16T19:07:36.921Z,10.07
2019-05-16T19:10:07.997Z,10.08
2019-05-16T19:12:38.217Z,10.01
2019-05-16T19:15:11.789Z,9.93
2019-05-16T19:17:42.820Z,9.96
2019-05-16T19:20:12.225Z,9.96
2019-05-16T19:22:42.923Z,9.91
2019-05-16T19:25:13.434Z,9.78
2019-05-16T19:27:43.230Z,9.81
2019-05-16T19:30:16.847Z,9.83
2019-05-16T19:32:47.007Z,9.88
2019-05-16T19:35:18.170Z,9.85
2019-05-16T19:37:48.128Z,9.96
2019-05-16T19:40:19.209Z,9.98
2019-05-16T19:42:49.008Z,9.98
2019-05-16T19:45:19.062Z,10.01
2019-05-16T19:47:49.246Z,9.97
2019-05-16T19:50:19.373Z,9.94
2019-05-16T19:52:48.827Z,9.95
2019-05-16T19:55:18.487Z,9.96
2019-05-16T19:57:48.356Z,9.88
2019-05-16T20:00:20.231Z,9.89
2019-05-16T20:02:50.708Z,9.97
2019-05-16T20:05:20.897Z,9.94
2019-05-16T20:07:51.469Z,9.97
2019-05-16T20:10:20.873Z,10.01
2019-05-16T20:12:51.272Z,9.96
2019-05-16T20:15:21.940Z,9.93
2019-05-16T20:17:55.164Z,9.87
2019-05-16T20:20:22.874Z,9.79
2019-05-16T20:22:53.340Z,9.72
2019-05-16T20:25:23.091Z,9.62
2019-05-16T20:27:52.779Z,9.55
2019-05-16T20:30:23.385Z,9.48
2019-05-16T20:32:52.876Z,9.40
2019-05-16T20:35:23.065Z,9.36
2019-05-16T20:37:53.099Z,9.30
2019-05-16T20:40:23.359Z,9.27
2019-05-16T20:42:53.271Z,9.22
2019-05-16T20:45:23.205Z,9.17
2019-05-16T20:48:07.356Z,9.11
2019-05-16T20:50:26.236Z,9.02
2019-05-16T20:52:57.285Z,8.88
2019-05-16T20:55:27.538Z,8.68
2019-05-16T20:57:57.543Z,8.54
2019-05-16T21:00:28.159Z,8.46
2019-05-16T21:02:58.277Z,8.36
2019-05-16T21:05:27.610Z,8.27
2019-05-16T21:07:58.815Z,8.20
2019-05-16T21:10:28.709Z,8.11
2019-05-16T21:12:59.151Z,8.06
2019-05-16T21:15:29.406Z,7.95
2019-05-16T21:17:59.009Z,7.87
2019-05-16T21:20:29.902Z,7.74
2019-05-16T21:23:01.676Z,7.71
2019-05-16T21:25:31.227Z,7.68
2019-05-16T21:28:01.648Z,7.54
2019-05-16T21:30:32.033Z,7.44
2019-05-16T21:33:02.518Z,7.42
2019-05-16T21:35:32.833Z,7.35
2019-05-16T21:38:03.478Z,7.34
2019-05-16T21:40:33.157Z,7.27
2019-05-16T21:43:02.818Z,7.20
2019-05-16T21:45:33.386Z,7.16
2019-05-16T21:48:03.713Z,7.09
2019-05-16T21:50:33.623Z,7.03
2019-05-16T21:53:03.695Z,6.98
2019-05-16T21:55:33.798Z,6.93
2019-05-16T21:58:03.389Z,6.90
2019-05-16T22:00:38.645Z,6.85
2019-05-16T22:03:08.275Z,6.81
2019-05-16T22:05:38.676Z,6.78
2019-05-16T22:08:11.568Z,6.85
2019-05-16T22:10:40.180Z,6.86
2019-05-16T22:13:09.946Z,6.88
2019-05-16T22:15:39.909Z,6.90
2019-05-16T22:18:09.366Z,6.94
2019-05-16T22:20:39.353Z,7.00
2019-05-16T22:23:09.211Z,7.08
2019-05-16T22:25:39.183Z,7.20
2019-05-16T22:28:08.882Z,7.35
2019-05-16T22:30:38.546Z,7.47
2019-05-16T22:33:09.260Z,7.56
2019-05-16T22:35:38.854Z,7.62
2019-05-16T22:38:08.366Z,7.68
2019-05-16T22:40:38.470Z,7.75
2019-05-16T22:43:11.587Z,7.80
2019-05-16T22:45:41.180Z,7.92
2019-05-16T22:48:11.282Z,7.98
2019-05-16T22:50:41.730Z,8.05
2019-05-16T22:53:11.561Z,8.17
2019-05-16T22:55:41.663Z,8.18
2019-05-16T22:58:11.678Z,8.26
2019-05-16T23:00:42.083Z,8.36
2019-05-16T23:06:41.406Z,8.38
2019-05-16T23:09:11.071Z,8.39
2019-05-16T23:11:40.718Z,8.47
2019-05-16T23:14:11.330Z,8.40
2019-05-16T23:16:42.056Z,8.43
2019-05-16T23:19:18.154Z,8.51
2019-05-16T23:21:47.752Z,8.53
2019-05-16T23:24:17.508Z,8.54
2019-05-16T23:26:47.144Z,8.56
2019-05-16T23:29:17.187Z,8.54
2019-05-16T23:31:47.395Z,8.53
2019-05-16T23:34:18.779Z,8.46
2019-05-16T23:36:49.956Z,8.40
2019-05-16T23:39:20.129Z,8.36
2019-05-16T23:41:52.499Z,8.35
2019-05-16T23:44:22.203Z,8.35
2019-05-16T23:46:53.068Z,8.34
2019-05-16T23:49:24.694Z,8.37
2019-05-16T23:51:56.672Z,8.28
2019-05-16T23:54:27.817Z,8.25
2019-05-16T23:57:23.043Z,8.19
2019-05-16T23:59:53.196Z,8.18
